Time;durP1;ratioP1;P1;durP2;ratioP2;P2;SDS_P1;SDS_P2;PMS_P1;PMS_P2;Temp;Humidity;BMP_temperature;BMP_pressure;BME280_temperature;BME280_humidity;BME280_pressure;Samples;Min_cycle;Max_cycle;Signal;HPM_P1;HPM_P2
2022/01/07 00:00:16;;;;;;;15.05;5.45;;;4.10;99.90;;;;;;5113620;28;20044;-79
2022/01/07 00:02:47;;;;;;;17.65;5.80;;;4.00;99.90;;;;;;5113866;28;20042;-79
2022/01/07 00:05:14;;;;;;;17.15;5.22;;;4.00;99.90;;;;;;5129522;27;20480;-79
2022/01/07 00:07:40;;;;;;;16.00;6.00;;;4.00;99.90;;;;;;5133897;27;20527;-78
2022/01/07 00:10:08;;;;;;;16.48;5.78;;;4.00;99.90;;;;;;5113823;28;20075;-78
2022/01/07 00:12:33;;;;;;;14.98;5.47;;;4.00;99.90;;;;;;5079386;28;20130;-78
2022/01/07 00:14:59;;;;;;;16.10;6.00;;;4.00;99.90;;;;;;5094867;28;20122;-79
2022/01/07 00:17:25;;;;;;;20.58;5.55;;;3.90;99.90;;;;;;5116540;27;20042;-79
2022/01/07 00:19:51;;;;;;;18.67;6.10;;;4.00;99.90;;;;;;5100271;27;20071;-79
2022/01/07 00:22:17;;;;;;;16.67;6.38;;;4.00;99.90;;;;;;5113040;28;20514;-79
2022/01/07 00:24:43;;;;;;;16.98;6.32;;;3.90;99.90;;;;;;5079349;28;20469;-79
2022/01/07 00:27:08;;;;;;;18.88;7.10;;;3.90;99.90;;;;;;5112973;28;20481;-79
2022/01/07 00:29:34;;;;;;;16.15;6.20;;;3.90;99.90;;;;;;5130490;27;20047;-79
2022/01/07 00:32:00;;;;;;;16.52;7.25;;;3.90;99.90;;;;;;5096035;28;20043;-79
2022/01/07 00:34:25;;;;;;;16.40;6.25;;;3.90;99.90;;;;;;5069107;28;20039;-79
2022/01/07 00:36:51;;;;;;;18.25;7.00;;;3.80;99.90;;;;;;5127985;27;20047;-79
2022/01/07 00:39:17;;;;;;;18.33;6.55;;;3.80;99.90;;;;;;5115451;28;20133;-80
2022/01/07 00:41:43;;;;;;;15.85;7.05;;;3.80;99.90;;;;;;5133071;27;20436;-80
2022/01/07 00:44:08;;;;;;;16.65;7.45;;;3.90;99.90;;;;;;5079044;28;20050;-79
2022/01/07 00:46:34;;;;;;;17.60;6.75;;;3.80;99.90;;;;;;5096099;27;20049;-79
2022/01/07 00:49:00;;;;;;;17.63;6.32;;;3.80;99.90;;;;;;5112180;28;20407;-80
2022/01/07 00:51:25;;;;;;;14.48;6.93;;;3.80;99.90;;;;;;5092468;27;20096;-79
2022/01/07 00:53:51;;;;;;;22.42;7.80;;;3.80;99.90;;;;;;5133568;27;20039;-79
2022/01/07 00:56:17;;;;;;;19.38;7.25;;;3.90;99.90;;;;;;5132847;28;20167;-79
2022/01/07 00:58:43;;;;;;;23.95;8.65;;;3.80;99.90;;;;;;5115740;28;20053;-80
2022/01/07 01:01:08;;;;;;;19.98;8.07;;;3.80;99.90;;;;;;5115925;28;20039;-80
2022/01/07 01:03:34;;;;;;;17.95;7.93;;;3.80;99.90;;;;;;5115967;28;20042;-79
2022/01/07 01:06:00;;;;;;;16.48;6.90;;;3.80;99.90;;;;;;5098326;28;20047;-79
2022/01/07 01:08:26;;;;;;;17.73;7.78;;;3.80;99.90;;;;;;5098629;28;20484;-80
2022/01/07 01:10:53;;;;;;;21.70;8.82;;;3.80;99.90;;;;;;5115917;28;20043;-78
2022/01/07 01:13:19;;;;;;;14.88;7.57;;;3.80;99.90;;;;;;5111530;28;20047;-80
2022/01/07 01:15:45;;;;;;;22.75;8.88;;;3.80;99.90;;;;;;5130584;28;20051;-79
2022/01/07 01:18:10;;;;;;;20.65;8.93;;;3.70;99.90;;;;;;5064146;28;20044;-79
2022/01/07 01:20:36;;;;;;;20.85;8.70;;;3.80;99.90;;;;;;5127602;28;20105;-88
2022/01/07 01:23:02;;;;;;;18.20;8.90;;;3.80;99.90;;;;;;5114870;28;20035;-79
2022/01/07 01:25:28;;;;;;;18.77;10.10;;;3.70;99.90;;;;;;5098482;28;20124;-79
2022/01/07 01:27:54;;;;;;;19.40;9.82;;;3.70;99.90;;;;;;5095253;28;20057;-79
2022/01/07 01:30:20;;;;;;;20.05;10.25;;;3.80;99.90;;;;;;5112017;28;20063;-79
2022/01/07 01:32:47;;;;;;;21.85;10.73;;;3.70;99.90;;;;;;5117570;28;20035;-79
2022/01/07 01:35:14;;;;;;;18.58;10.57;;;3.70;99.90;;;;;;5097027;28;20514;-79
2022/01/07 01:37:40;;;;;;;18.00;10.90;;;3.70;99.90;;;;;;5131818;28;20239;-81
2022/01/07 01:40:07;;;;;;;21.80;11.52;;;3.70;99.90;;;;;;5115649;28;20093;-79
2022/01/07 01:42:33;;;;;;;18.90;12.02;;;3.70;99.90;;;;;;5098347;28;20108;-79
2022/01/07 01:44:59;;;;;;;20.92;11.23;;;3.60;99.90;;;;;;5098457;28;20039;-80
2022/01/07 01:47:25;;;;;;;22.30;11.18;;;3.70;99.90;;;;;;5098490;28;20051;-80
2022/01/07 01:49:50;;;;;;;20.25;10.93;;;3.70;99.90;;;;;;5132307;28;20057;-80
2022/01/07 01:52:16;;;;;;;14.85;9.60;;;3.70;99.90;;;;;;5118340;27;20063;-80
2022/01/07 01:54:43;;;;;;;18.85;11.27;;;3.60;99.90;;;;;;5119183;27;20046;-82
2022/01/07 01:57:10;;;;;;;17.30;9.35;;;3.60;99.90;;;;;;5082159;28;20050;-78
2022/01/07 01:59:36;;;;;;;21.92;11.55;;;3.60;99.90;;;;;;5119388;27;20476;-80
2022/01/07 02:02:01;;;;;;;20.13;12.50;;;3.60;99.90;;;;;;5136819;27;20042;-80
2022/01/07 02:04:28;;;;;;;19.38;12.43;;;3.60;99.90;;;;;;5085295;27;20043;-80
2022/01/07 02:06:54;;;;;;;18.35;12.43;;;3.60;99.90;;;;;;5136619;27;20418;-80
2022/01/07 02:09:25;;;;;;;25.45;13.23;;;3.50;99.90;;;;;;5115967;28;20044;-80
2022/01/07 02:11:51;;;;;;;19.13;11.48;;;3.50;99.90;;;;;;5130863;27;20095;-78
2022/01/07 02:14:16;;;;;;;21.08;13.23;;;3.50;99.90;;;;;;5098653;28;20073;-79
2022/01/07 02:16:42;;;;;;;19.98;13.35;;;3.50;99.90;;;;;;5108923;27;20039;-80
2022/01/07 02:19:08;;;;;;;18.75;12.65;;;3.50;99.90;;;;;;5118636;27;20043;-79
2022/01/07 02:21:37;;;;;;;16.83;11.68;;;3.40;99.90;;;;;;5118378;27;20027;-79
2022/01/07 02:24:04;;;;;;;15.55;11.32;;;3.40;99.90;;;;;;5119037;27;20066;-80
2022/01/07 02:26:35;;;;;;;19.80;12.95;;;3.30;99.90;;;;;;5118507;27;20430;-81
2022/01/07 02:29:01;;;;;;;17.83;12.23;;;3.30;99.90;;;;;;5136042;27;20478;-80
2022/01/07 02:31:27;;;;;;;20.25;14.02;;;3.30;99.90;;;;;;5118288;27;20042;-79
2022/01/07 02:33:53;;;;;;;23.10;14.80;;;3.30;99.90;;;;;;5101815;27;20101;-80
2022/01/07 02:36:19;;;;;;;20.58;13.02;;;3.30;99.90;;;;;;5118272;27;20039;-81
2022/01/07 02:38:45;;;;;;;20.10;12.85;;;3.40;99.90;;;;;;5134882;27;20051;-81
2022/01/07 02:41:10;;;;;;;20.65;11.52;;;3.40;99.90;;;;;;5134387;27;20043;-81
2022/01/07 02:43:36;;;;;;;18.95;10.52;;;3.40;99.90;;;;;;5101235;27;20373;-81
2022/01/07 02:46:03;;;;;;;18.98;11.43;;;3.40;99.90;;;;;;5134830;27;20550;-82
2022/01/07 02:48:28;;;;;;;17.65;12.10;;;3.40;99.90;;;;;;5112925;28;20067;-81
2022/01/07 02:50:54;;;;;;;16.25;12.48;;;3.40;99.90;;;;;;5114313;28;20078;-81
2022/01/07 02:53:20;;;;;;;20.80;11.98;;;3.40;99.90;;;;;;5097801;28;20052;-83
2022/01/07 02:55:46;;;;;;;20.25;12.65;;;3.40;99.90;;;;;;5098764;27;20552;-82
2022/01/07 02:58:12;;;;;;;22.50;14.07;;;3.40;99.90;;;;;;5112578;27;20039;-81
2022/01/07 03:00:38;;;;;;;21.10;14.52;;;3.40;99.90;;;;;;5117666;27;20124;-82
2022/01/07 03:03:05;;;;;;;19.90;13.45;;;3.40;99.90;;;;;;5117155;27;20065;-81
2022/01/07 03:05:31;;;;;;;19.17;12.98;;;3.50;99.90;;;;;;5117872;27;20096;-82
2022/01/07 03:07:57;;;;;;;20.33;12.10;;;3.50;99.90;;;;;;5117900;27;20122;-80
2022/01/07 03:10:26;;;;;;;22.60;13.77;;;3.60;99.90;;;;;;5115046;27;20039;-81
2022/01/07 03:12:53;;;;;;;23.67;14.93;;;3.60;99.90;;;;;;5132187;27;20062;-80
2022/01/07 03:15:19;;;;;;;23.25;13.88;;;3.60;99.90;;;;;;5134511;27;20392;-80
2022/01/07 03:17:45;;;;;;;24.95;14.55;;;3.60;99.90;;;;;;5080076;28;20036;-80
2022/01/07 03:20:17;;;;;;;23.17;14.43;;;3.60;99.90;;;;;;5114059;27;20066;-80
2022/01/07 03:22:45;;;;;;;26.20;14.90;;;3.60;99.90;;;;;;5134577;27;20050;-80
2022/01/07 03:25:11;;;;;;;23.75;14.95;;;3.60;99.90;;;;;;5117694;27;20047;-81
2022/01/07 03:27:38;;;;;;;25.80;14.65;;;3.70;99.90;;;;;;5117400;27;20039;-81
2022/01/07 03:30:06;;;;;;;23.77;14.15;;;3.60;99.90;;;;;;5100596;27;20121;-81
2022/01/07 03:32:32;;;;;;;25.73;15.63;;;3.60;99.90;;;;;;5117184;27;20059;-83
2022/01/07 03:34:58;;;;;;;33.03;17.70;;;3.70;99.90;;;;;;5096997;28;20049;-81
2022/01/07 03:37:24;;;;;;;27.70;16.50;;;3.70;99.90;;;;;;5112952;27;20126;-80
2022/01/07 03:39:49;;;;;;;29.42;17.00;;;3.70;99.90;;;;;;5113306;28;20055;-80
2022/01/07 03:42:15;;;;;;;26.45;17.23;;;3.70;99.90;;;;;;5106109;28;20054;-81
2022/01/07 03:44:41;;;;;;;27.02;16.92;;;3.70;99.90;;;;;;5096810;28;20050;-81
2022/01/07 03:47:07;;;;;;;24.27;17.08;;;3.70;99.90;;;;;;5113691;28;20134;-81
2022/01/07 03:49:32;;;;;;;22.08;16.60;;;3.70;99.90;;;;;;5125397;27;20047;-81
2022/01/07 03:51:58;;;;;;;26.70;16.65;;;3.70;99.90;;;;;;5099899;27;20047;-81
2022/01/07 03:54:24;;;;;;;25.65;17.42;;;3.70;99.90;;;;;;5117242;27;20082;-81
2022/01/07 03:56:49;;;;;;;25.20;15.82;;;3.80;99.90;;;;;;5133810;27;20039;-80
2022/01/07 03:59:15;;;;;;;28.05;17.10;;;3.80;99.90;;;;;;5100054;27;20043;-80
2022/01/07 04:01:41;;;;;;;25.05;17.02;;;3.80;99.90;;;;;;5133742;27;20407;-80
2022/01/07 04:04:06;;;;;;;22.52;15.85;;;3.80;99.90;;;;;;5116995;27;20043;-79
2022/01/07 04:06:32;;;;;;;23.85;16.35;;;3.80;99.90;;;;;;5134024;27;20065;-78
2022/01/07 04:08:58;;;;;;;28.73;17.30;;;3.90;99.90;;;;;;5117095;27;20493;-79
2022/01/07 04:11:24;;;;;;;27.38;18.38;;;3.90;99.90;;;;;;5100261;27;20134;-78
2022/01/07 04:14:34;;;;;;;25.88;16.52;;;3.90;99.90;;;;;;5134079;27;20130;-78
2022/01/07 04:17:00;;;;;;;22.60;16.55;;;3.90;99.90;;;;;;5117328;27;20392;-78
2022/01/07 04:19:26;;;;;;;24.02;16.63;;;3.90;99.90;;;;;;5117537;27;20125;-78
2022/01/07 04:21:51;;;;;;;26.60;17.33;;;3.90;99.90;;;;;;5117126;27;20086;-78
2022/01/07 04:24:18;;;;;;;25.92;16.15;;;3.90;99.90;;;;;;5134529;27;20488;-79
2022/01/07 04:26:44;;;;;;;27.70;17.90;;;3.90;99.90;;;;;;5099775;27;20047;-79
2022/01/07 04:29:10;;;;;;;24.60;16.45;;;3.90;99.90;;;;;;5116895;27;20379;-79
2022/01/07 04:31:37;;;;;;;23.92;17.70;;;4.00;99.90;;;;;;5116447;27;20489;-79
2022/01/07 04:34:03;;;;;;;27.05;17.52;;;3.90;99.90;;;;;;5116033;27;20498;-79
2022/01/07 04:36:28;;;;;;;27.85;17.67;;;3.90;99.90;;;;;;5113432;28;20063;-79
2022/01/07 04:38:54;;;;;;;25.13;18.17;;;4.00;99.90;;;;;;5115761;27;20050;-78
2022/01/07 04:41:20;;;;;;;29.70;18.65;;;4.00;99.90;;;;;;5116675;27;20069;-78
2022/01/07 04:43:46;;;;;;;23.75;18.40;;;4.00;99.90;;;;;;5116724;27;20050;-78
2022/01/07 04:46:11;;;;;;;28.02;20.20;;;4.10;99.90;;;;;;5134591;27;20126;-78
2022/01/07 04:48:37;;;;;;;28.90;18.88;;;4.00;99.90;;;;;;5133624;27;20143;-80
2022/01/07 04:51:03;;;;;;;25.38;17.98;;;4.10;99.90;;;;;;5098976;27;20126;-79
2022/01/07 04:53:29;;;;;;;26.80;19.45;;;4.00;99.90;;;;;;5099393;27;20039;-80
2022/01/07 04:55:58;;;;;;;31.42;19.08;;;4.00;99.90;;;;;;5132786;27;20526;-80
2022/01/07 04:58:24;;;;;;;27.83;17.23;;;4.10;99.90;;;;;;5099620;28;20081;-81
2022/01/07 05:00:50;;;;;;;29.45;19.67;;;4.00;99.90;;;;;;5078611;28;20206;-79
2022/01/07 05:03:16;;;;;;;32.63;19.52;;;4.00;99.90;;;;;;5114657;28;20043;-79
2022/01/07 05:05:47;;;;;;;28.05;19.73;;;4.10;99.90;;;;;;5115995;28;20042;-88
2022/01/07 05:08:15;;;;;;;30.73;19.85;;;4.10;99.90;;;;;;5132932;28;20053;-80
2022/01/07 05:10:42;;;;;;;30.60;18.88;;;4.10;99.90;;;;;;5115641;28;20130;-79
2022/01/07 05:13:08;;;;;;;30.60;17.90;;;4.10;99.90;;;;;;5115482;28;20039;-79
2022/01/07 05:15:35;;;;;;;30.50;21.13;;;4.10;99.90;;;;;;5115602;28;20050;-80
2022/01/07 05:18:01;;;;;;;31.40;21.38;;;4.10;99.90;;;;;;5115684;28;20403;-79
2022/01/07 05:20:27;;;;;;;31.50;20.23;;;4.10;99.90;;;;;;5116101;28;20051;-80
2022/01/07 05:22:53;;;;;;;32.10;20.67;;;4.10;99.90;;;;;;5132884;28;20047;-79
2022/01/07 05:25:20;;;;;;;34.85;21.20;;;4.20;99.90;;;;;;5115614;27;20039;-78
2022/01/07 05:27:46;;;;;;;27.73;21.58;;;4.10;99.90;;;;;;5120822;27;20039;-78
2022/01/07 05:30:13;;;;;;;31.13;22.10;;;4.10;99.90;;;;;;5137884;27;20054;-79
2022/01/07 05:32:39;;;;;;;25.48;18.73;;;4.10;99.90;;;;;;5103677;27;20101;-79
2022/01/07 05:35:06;;;;;;;32.22;23.63;;;4.10;99.90;;;;;;5103423;27;20043;-78
2022/01/07 05:37:32;;;;;;;41.72;25.00;;;4.10;99.90;;;;;;5136587;27;20058;-79
2022/01/07 05:39:58;;;;;;;35.30;22.80;;;4.10;99.90;;;;;;5120339;27;20101;-79
2022/01/07 05:42:25;;;;;;;38.03;24.73;;;4.10;99.90;;;;;;5120374;27;20035;-80
2022/01/07 05:44:51;;;;;;;31.15;21.65;;;4.10;99.90;;;;;;5102870;27;20051;-80
2022/01/07 05:47:17;;;;;;;36.95;24.25;;;4.10;99.90;;;;;;5119539;27;20050;-80
2022/01/07 05:49:42;;;;;;;38.78;24.38;;;4.20;99.90;;;;;;5118986;27;20046;-80
2022/01/07 05:52:08;;;;;;;39.95;23.23;;;4.20;99.90;;;;;;5118964;27;20050;-80
2022/01/07 05:54:34;;;;;;;35.78;24.77;;;4.20;99.90;;;;;;5135957;27;20457;-79
2022/01/07 05:57:00;;;;;;;35.17;24.08;;;4.20;99.90;;;;;;5115047;28;20040;-80
2022/01/07 05:59:26;;;;;;;36.72;23.23;;;4.20;99.90;;;;;;5098818;28;20047;-80
2022/01/07 06:01:51;;;;;;;39.40;25.38;;;4.20;99.90;;;;;;5118309;27;20047;-80
2022/01/07 06:04:17;;;;;;;37.97;24.70;;;4.20;99.90;;;;;;5102344;27;20123;-79
2022/01/07 06:06:43;;;;;;;39.83;25.70;;;4.20;99.90;;;;;;5102286;27;20088;-80
2022/01/07 06:09:09;;;;;;;42.90;26.17;;;4.20;99.90;;;;;;5101961;27;20082;-79
2022/01/07 06:11:34;;;;;;;42.03;26.10;;;4.30;99.90;;;;;;5117283;27;20092;-80
2022/01/07 06:14:00;;;;;;;39.92;26.05;;;4.30;99.90;;;;;;5116610;27;20070;-80
2022/01/07 06:16:26;;;;;;;36.13;25.50;;;4.20;99.90;;;;;;5118944;27;20050;-79
2022/01/07 06:18:53;;;;;;;34.67;24.08;;;4.20;99.90;;;;;;5135704;27;20035;-81
2022/01/07 06:21:19;;;;;;;35.05;23.58;;;4.20;99.90;;;;;;5101998;27;20039;-81
2022/01/07 06:23:45;;;;;;;36.60;23.85;;;4.10;99.90;;;;;;5118018;27;20043;-80
2022/01/07 06:26:11;;;;;;;32.03;22.60;;;4.20;99.90;;;;;;5130612;27;20039;-80
2022/01/07 06:28:36;;;;;;;32.58;22.23;;;4.20;99.90;;;;;;5135639;27;20543;-80
2022/01/07 06:31:02;;;;;;;32.08;21.88;;;4.20;99.90;;;;;;5117903;27;20047;-80
2022/01/07 06:33:28;;;;;;;36.65;22.98;;;4.20;99.90;;;;;;5135638;27;20071;-80
2022/01/07 06:35:53;;;;;;;32.83;22.80;;;4.30;99.90;;;;;;5118076;27;20054;-80
2022/01/07 06:38:19;;;;;;;33.13;22.88;;;4.30;99.90;;;;;;5104103;27;20059;-81
2022/01/07 06:40:45;;;;;;;35.72;22.40;;;4.40;99.90;;;;;;5100279;27;20043;-80
2022/01/07 06:43:10;;;;;;;35.63;23.73;;;4.40;99.90;;;;;;5115144;27;20040;-80
2022/01/07 06:45:36;;;;;;;37.30;24.30;;;4.30;99.90;;;;;;5116532;27;20043;-84
2022/01/07 06:48:02;;;;;;;37.08;24.17;;;4.40;99.90;;;;;;5096856;27;20051;-84
2022/01/07 06:50:28;;;;;;;38.75;24.77;;;4.30;99.90;;;;;;5075794;27;20043;-79
2022/01/07 06:52:53;;;;;;;36.28;25.02;;;4.40;99.90;;;;;;5101006;27;20043;-80
2022/01/07 06:55:20;;;;;;;38.25;24.88;;;4.30;99.90;;;;;;5087923;27;20051;-80
2022/01/07 06:57:46;;;;;;;40.03;26.30;;;4.30;99.90;;;;;;5118019;27;20035;-80
2022/01/07 07:00:13;;;;;;;38.45;25.95;;;4.30;99.90;;;;;;5095648;27;20046;-80
2022/01/07 07:02:38;;;;;;;36.17;25.85;;;4.30;99.90;;;;;;5096867;28;20082;-80
2022/01/07 07:05:05;;;;;;;39.60;24.83;;;4.30;99.90;;;;;;5132280;27;20082;-80
2022/01/07 07:07:30;;;;;;;38.63;26.02;;;4.30;99.90;;;;;;5100711;27;20043;-81
2022/01/07 07:09:56;;;;;;;39.08;24.27;;;4.30;99.90;;;;;;5134270;27;20104;-84
2022/01/07 07:12:22;;;;;;;37.75;24.92;;;4.20;99.90;;;;;;5133424;27;20450;-80
2022/01/07 07:14:47;;;;;;;39.63;25.48;;;4.20;99.90;;;;;;5115425;27;20039;-82
2022/01/07 07:17:14;;;;;;;38.00;25.27;;;4.20;99.90;;;;;;5117575;27;20043;-79
2022/01/07 07:19:40;;;;;;;36.00;26.23;;;4.20;99.90;;;;;;5080528;28;20138;-79
2022/01/07 07:22:06;;;;;;;41.35;26.58;;;4.20;99.90;;;;;;5095748;27;20122;-80
2022/01/07 07:24:32;;;;;;;38.88;25.25;;;4.10;99.90;;;;;;5134855;27;20126;-80
2022/01/07 07:26:58;;;;;;;44.83;25.70;;;4.10;99.90;;;;;;5117391;27;20558;-80
2022/01/07 07:29:23;;;;;;;43.20;25.98;;;4.10;99.90;;;;;;5117299;27;20483;-80
2022/01/07 07:31:54;;;;;;;34.95;24.83;;;4.00;99.90;;;;;;5100529;27;20047;-80
2022/01/07 07:37:04;;;;;;;38.92;26.27;;;4.00;99.90;;;;;;5119077;27;20051;-80
2022/01/07 07:39:30;;;;;;;41.90;27.30;;;4.00;99.90;;;;;;5134534;27;20051;-79
2022/01/07 07:41:56;;;;;;;46.17;26.75;;;4.00;99.90;;;;;;5100259;27;20051;-78
2022/01/07 07:44:22;;;;;;;43.10;27.58;;;4.00;99.90;;;;;;5134381;27;20043;-80
2022/01/07 07:46:47;;;;;;;43.40;27.13;;;3.90;99.90;;;;;;5116849;27;20074;-79
2022/01/07 07:49:14;;;;;;;40.53;26.85;;;3.90;99.90;;;;;;5115606;27;20039;-77
2022/01/07 07:51:41;;;;;;;48.55;27.67;;;3.90;99.90;;;;;;5114622;27;20499;-79
2022/01/07 07:54:08;;;;;;;41.83;28.85;;;3.90;99.90;;;;;;5116205;27;20126;-80
2022/01/07 07:56:34;;;;;;;44.50;28.98;;;3.90;99.90;;;;;;5134013;27;20484;-81
2022/01/07 07:59:00;;;;;;;42.95;27.95;;;3.90;99.90;;;;;;5133200;27;20188;-80
2022/01/07 08:01:26;;;;;;;42.90;27.58;;;3.70;99.90;;;;;;5116921;27;20051;-79
2022/01/07 08:03:52;;;;;;;42.45;27.70;;;3.80;99.90;;;;;;5134114;27;20043;-80
2022/01/07 08:06:19;;;;;;;45.67;26.48;;;3.80;99.90;;;;;;5115716;27;20047;-80
2022/01/07 08:08:46;;;;;;;42.55;27.35;;;3.70;99.90;;;;;;5133812;27;20496;-80
2022/01/07 08:11:13;;;;;;;44.50;26.75;;;3.80;99.90;;;;;;5099743;27;20051;-80
2022/01/07 08:16:26;;;;;;;45.08;29.33;;;3.90;99.90;;;;;;5119197;27;20495;-79
2022/01/07 08:18:54;;;;;;;44.50;29.42;;;4.00;99.90;;;;;;5112866;28;20071;-79
2022/01/07 08:21:23;;;;;;;45.42;28.58;;;4.00;99.90;;;;;;5114882;27;20047;-80
2022/01/07 08:23:49;;;;;;;44.95;29.98;;;4.10;99.90;;;;;;5133938;27;20132;-79
2022/01/07 08:26:17;;;;;;;51.63;27.88;;;3.90;99.90;;;;;;5082617;27;20051;-80
2022/01/07 08:28:51;;;;;;;48.13;28.88;;;3.90;99.90;;;;;;5116096;27;20046;-79
2022/01/07 08:34:52;;;;;;;42.80;28.10;;;3.90;99.90;;;;;;5116352;27;20468;-79
2022/01/07 08:36:54;;;;;;;41.53;25.15;;;3.80;99.90;;;;;;5132376;27;20407;-80
2022/01/07 08:39:19;;;;;;;43.58;25.20;;;3.70;99.90;;;;;;5132663;27;20048;-80
2022/01/07 08:41:45;;;;;;;44.13;23.60;;;3.80;99.90;;;;;;5116736;27;20078;-80
2022/01/07 08:44:11;;;;;;;45.20;25.75;;;3.70;99.90;;;;;;5095479;28;20047;-79
2022/01/07 08:46:38;;;;;;;43.88;25.45;;;3.70;99.90;;;;;;5124071;27;20114;-79
2022/01/07 08:49:05;;;;;;;44.58;25.45;;;3.80;99.90;;;;;;5116580;27;20043;-79
2022/01/07 08:51:31;;;;;;;36.80;23.55;;;3.80;99.90;;;;;;5115939;27;20043;-79
2022/01/07 08:53:57;;;;;;;41.63;22.05;;;3.80;99.90;;;;;;5131586;27;20420;-80
2022/01/07 08:56:24;;;;;;;39.75;21.83;;;3.80;99.90;;;;;;5132556;27;20042;-80
2022/01/07 08:58:51;;;;;;;37.50;20.77;;;3.80;99.90;;;;;;5131862;28;20054;-79
2022/01/07 09:01:18;;;;;;;32.60;21.20;;;3.90;99.90;;;;;;5130831;27;20074;-79
2022/01/07 09:03:43;;;;;;;34.53;21.38;;;3.90;99.90;;;;;;5092089;28;20544;-80
2022/01/07 09:06:09;;;;;;;38.00;21.90;;;4.00;99.90;;;;;;5132574;28;20035;-82
2022/01/07 09:08:35;;;;;;;40.90;23.70;;;4.10;99.90;;;;;;5095413;28;20078;-81
2022/01/07 09:11:01;;;;;;;40.00;22.33;;;4.20;99.90;;;;;;5113273;28;20130;-80
2022/01/07 09:13:27;;;;;;;39.05;22.65;;;4.30;99.90;;;;;;5132029;28;20114;-80
2022/01/07 09:15:53;;;;;;;34.40;20.55;;;4.30;99.90;;;;;;5132451;28;20043;-80
2022/01/07 09:18:20;;;;;;;24.83;12.93;;;4.40;99.90;;;;;;5114543;28;20043;-80
2022/01/07 09:20:47;;;;;;;26.88;11.13;;;4.40;99.90;;;;;;5113348;28;20044;-80
2022/01/07 09:23:14;;;;;;;28.67;14.82;;;4.40;99.90;;;;;;5116338;28;20081;-81
2022/01/07 09:25:41;;;;;;;28.88;12.05;;;4.50;99.90;;;;;;5096026;28;20047;-80
2022/01/07 09:28:08;;;;;;;34.00;16.80;;;4.40;99.90;;;;;;5115292;28;20047;-77
2022/01/07 09:30:34;;;;;;;34.95;19.73;;;4.40;99.90;;;;;;5132921;28;20425;-77
2022/01/07 09:33:00;;;;;;;41.67;22.02;;;4.40;99.90;;;;;;5098968;28;20407;-79
2022/01/07 09:35:27;;;;;;;36.75;22.33;;;4.40;99.90;;;;;;5081608;28;20130;-80
2022/01/07 09:37:53;;;;;;;42.85;22.17;;;4.40;99.90;;;;;;5132175;28;20062;-80
2022/01/07 09:40:20;;;;;;;39.22;20.73;;;4.40;99.90;;;;;;5132563;28;20055;-80
2022/01/07 09:43:04;;;;;;;43.72;21.02;;;4.40;99.90;;;;;;5115331;28;20047;-79
2022/01/07 09:45:31;;;;;;;32.20;18.27;;;4.40;99.90;;;;;;5114034;28;20324;-82
2022/01/07 09:47:58;;;;;;;33.80;17.95;;;4.40;99.90;;;;;;5098455;28;20102;-82
2022/01/07 09:50:26;;;;;;;39.92;19.38;;;4.40;99.90;;;;;;5093758;28;20438;-80
2022/01/07 09:52:52;;;;;;;43.08;22.88;;;4.40;99.90;;;;;;5130046;28;20509;-80
2022/01/07 09:55:18;;;;;;;43.85;22.20;;;4.50;99.90;;;;;;5114642;28;20043;-81
2022/01/07 09:57:44;;;;;;;50.65;24.58;;;4.50;99.90;;;;;;5128344;28;20050;-81
2022/01/07 10:00:11;;;;;;;45.72;23.85;;;4.50;99.90;;;;;;5113457;28;20043;-80
2022/01/07 10:02:36;;;;;;;38.90;21.75;;;4.50;99.90;;;;;;5121073;28;20041;-81
2022/01/07 10:05:16;;;;;;;34.80;21.63;;;4.50;99.90;;;;;;5124921;28;20035;-80
2022/01/07 10:07:43;;;;;;;39.88;18.13;;;4.50;99.90;;;;;;5114218;28;20042;-81
2022/01/07 10:10:14;;;;;;;32.33;17.35;;;4.50;99.90;;;;;;5124492;28;20047;-84
2022/01/07 10:13:04;;;;;;;37.60;16.42;;;4.50;99.90;;;;;;5111581;27;20051;-81
2022/01/07 10:15:29;;;;;;;33.88;14.52;;;4.60;99.90;;;;;;5134761;27;20483;-81
2022/01/07 10:17:56;;;;;;;30.00;12.70;;;4.70;99.90;;;;;;5103591;27;20031;-80
2022/01/07 10:20:31;;;;;;;24.50;11.60;;;4.70;99.90;;;;;;5118123;27;20047;-80
2022/01/07 10:23:05;;;;;;;28.88;11.70;;;4.80;99.90;;;;;;5098625;27;20043;-80
2022/01/07 10:25:33;;;;;;;23.25;10.65;;;4.90;99.90;;;;;;5117811;27;20047;-81
2022/01/07 10:28:09;;;;;;;22.60;11.55;;;4.90;99.90;;;;;;5116894;27;20540;-81
2022/01/07 10:30:40;;;;;;;28.23;12.85;;;5.10;99.90;;;;;;5111888;27;20066;-81
2022/01/07 10:33:16;;;;;;;24.33;12.90;;;5.20;99.90;;;;;;5132467;27;20122;-81
2022/01/07 10:35:42;;;;;;;;;;;5.30;99.90;;;;;;5112842;28;20035;-80
2022/01/07 10:38:13;;;;;;;19.47;9.27;;;5.30;99.90;;;;;;5112941;27;20605;-78
2022/01/07 10:40:40;;;;;;;30.48;13.07;;;5.40;99.90;;;;;;5133793;27;20146;-80
2022/01/07 10:43:24;;;;;;;31.48;12.10;;;5.40;99.90;;;;;;5100281;27;20449;-81
2022/01/07 10:45:54;;;;;;;25.40;12.00;;;5.50;99.90;;;;;;5133837;27;20392;-81
2022/01/07 10:48:23;;;;;;;26.63;12.30;;;5.60;99.90;;;;;;5134937;27;20075;-85
2022/01/07 10:50:51;;;;;;;30.65;12.13;;;5.80;99.90;;;;;;5134591;27;20130;-81
2022/01/07 10:53:21;;;;;;;23.63;11.05;;;5.90;99.90;;;;;;5134845;27;20499;-80
2022/01/07 10:56:07;;;;;;;21.73;10.50;;;5.90;99.90;;;;;;5117585;27;20046;-80
2022/01/07 10:58:44;;;;;;;20.33;6.88;;;5.80;99.90;;;;;;5100363;27;20035;-81
2022/01/07 11:01:19;;;;;;;19.48;7.45;;;5.80;99.90;;;;;;5109401;27;20065;-81
2022/01/07 11:03:49;;;;;;;17.65;5.85;;;5.90;99.90;;;;;;5117374;27;20475;-80
2022/01/07 11:06:15;;;;;;;19.88;6.45;;;6.00;99.90;;;;;;5117191;27;20058;-81
2022/01/07 11:08:41;;;;;;;16.25;5.43;;;6.00;99.90;;;;;;5083707;27;20050;-81
2022/01/07 11:11:11;;;;;;;15.32;2.47;;;6.00;99.90;;;;;;5083427;27;20134;-81
2022/01/07 11:13:38;;;;;;;10.43;1.80;;;6.00;99.90;;;;;;5073956;28;20071;-81
2022/01/07 11:16:04;;;;;;;8.77;1.60;;;6.10;99.90;;;;;;5098107;27;20043;-80
2022/01/07 11:18:31;;;;;;;8.90;1.60;;;6.10;99.90;;;;;;5133700;27;20233;-82
2022/01/07 11:20:59;;;;;;;13.63;1.95;;;6.10;99.90;;;;;;5133895;27;20051;-80
2022/01/07 11:23:25;;;;;;;13.23;2.28;;;6.00;99.90;;;;;;5133058;27;20051;-83
2022/01/07 11:26:03;;;;;;;10.70;1.95;;;5.90;99.90;;;;;;5113826;27;20051;-82
2022/01/07 11:28:29;;;;;;;9.48;1.90;;;5.90;99.90;;;;;;5113778;27;20043;-80
2022/01/07 11:31:13;;;;;;;10.98;1.88;;;6.10;99.90;;;;;;5130872;27;20051;-83
2022/01/07 11:33:40;;;;;;;10.02;1.70;;;6.40;99.90;;;;;;5130211;27;20035;-83
2022/01/07 11:36:10;;;;;;;14.82;2.03;;;6.70;99.90;;;;;;5129467;27;20042;-81
2022/01/07 11:38:36;;;;;;;9.40;1.52;;;7.00;99.90;;;;;;5115150;27;20082;-81
2022/01/07 11:41:04;;;;;;;14.43;2.80;;;6.90;99.90;;;;;;5132989;27;20074;-81
2022/01/07 11:43:37;;;;;;;8.13;1.55;;;6.70;99.90;;;;;;5107741;27;20039;-82
2022/01/07 11:46:23;;;;;;;10.38;1.67;;;6.30;99.90;;;;;;5095542;27;20043;-82
2022/01/07 11:48:49;;;;;;;7.32;1.73;;;6.40;99.90;;;;;;5096196;27;20046;-82
2022/01/07 11:51:16;;;;;;;10.23;1.83;;;6.80;99.90;;;;;;5109971;27;20055;-83
2022/01/07 11:53:42;;;;;;;11.02;1.77;;;7.30;99.90;;;;;;5130698;27;20100;-85
2022/01/07 11:56:16;;;;;;;11.55;1.95;;;7.70;99.90;;;;;;5114951;27;20043;-82
2022/01/07 11:58:51;;;;;;;8.20;1.48;;;8.10;99.90;;;;;;5101698;27;20490;-84
2022/01/07 12:01:30;;;;;;;9.77;1.70;;;8.40;99.90;;;;;;5114857;27;20054;-82
2022/01/07 12:04:01;;;;;;;9.50;2.13;;;8.60;99.90;;;;;;5115183;27;20483;-83
2022/01/07 12:06:27;;;;;;;8.73;1.50;;;8.80;99.90;;;;;;5132561;27;20694;-84
2022/01/07 12:09:06;;;;;;;10.45;1.92;;;9.00;99.90;;;;;;5117876;27;20043;-84
2022/01/07 12:11:42;;;;;;;5.72;1.42;;;9.20;99.90;;;;;;5113713;27;20075;-82
2022/01/07 12:14:15;;;;;;;;;;;9.20;99.90;;;;;;5122097;27;20082;-83
2022/01/07 12:16:43;;;;;;;9.63;2.13;;;9.10;99.90;;;;;;5125398;27;19923;-82
2022/01/07 12:19:12;;;;;;;8.60;1.75;;;9.20;99.90;;;;;;5085724;28;20097;-82
2022/01/07 12:21:39;;;;;;;9.63;2.08;;;9.20;99.90;;;;;;5116739;27;20036;-83
2022/01/07 12:24:10;;;;;;;7.00;1.55;;;9.20;99.90;;;;;;5123671;27;20039;-83
2022/01/07 12:26:36;;;;;;;10.20;1.92;;;9.10;99.90;;;;;;5110677;27;20572;-83
2022/01/07 12:29:03;;;;;;;11.65;1.75;;;8.70;99.90;;;;;;5089652;27;20039;-82
2022/01/07 12:31:29;;;;;;;9.25;2.00;;;8.30;99.90;;;;;;5132406;27;20047;-84
2022/01/07 12:33:57;;;;;;;12.48;1.90;;;8.00;99.90;;;;;;5093182;27;20042;-82
2022/01/07 12:36:34;;;;;;;10.18;2.05;;;7.80;99.90;;;;;;5124286;27;20483;-82
2022/01/07 12:39:04;;;;;;;8.95;1.75;;;7.60;99.90;;;;;;5110155;28;20108;-83
2022/01/07 12:41:30;;;;;;;12.40;2.58;;;7.50;99.90;;;;;;5111586;28;20453;-84
2022/01/07 12:44:06;;;;;;;13.70;2.15;;;7.30;99.90;;;;;;5078399;28;20047;-83
2022/01/07 12:46:32;;;;;;;12.20;2.60;;;7.30;99.90;;;;;;5095191;28;20082;-83
2022/01/07 12:48:57;;;;;;;9.57;2.15;;;7.20;99.90;;;;;;5111655;28;20075;-81